PWSweather.com
Personal Weather Stations
Station Observations
KTXRICHA120
Richardson, TX

Richardson, TX

Lat: 32.99476242, Lon: -96.73544312

Elevation: 679

Station Type:

Latest ConditionsUpdated 7:54:00 AM CDT Tuesday, Apr 23, 2019
Currently Today's Max Today's Min Today's Average
Temperature 66.7°F19.3°C 71.6°F22.0°C 65.8°F18.8°C 67.8°F19.9°C
Dew Point 62.4°F16.9°C 62.4°F16.9°C 60.3°F15.7°C 61.1°F16.2°C
Winds 1.1 mph S1.8 kmh S 3.8 mph -6.1 kmh - - 1.1 mph 1.8 kmh
Wind Gusts 1.1 mph1.8 kmh 5.8 mph9.3 kmh - -
Humidity 86% 86% 72% 79%
Pressure 29.31 in992.6 mb 29.31 in992.6 mb 29.27 in991.2 mb -
Hour Temp Dew Point Humidity Winds Wind Gusts Pressure Precip Precip Rate Daily Precip Total
07:54 AM 66.7°F19.3°C 62.4°F16.9°C 86% 1.1 mph S1.8 kmh S 1.1 mph1.8 kmh 29.31 in992.6 mb 0.00 in0.0 mm 0.00 in0.0 mm 0.00 in0.0 mm
07:49 AM 66.7°F19.3°C 62.4°F16.9°C 86% 1.3 mph WSW2.1 kmh WSW 2.2 mph3.5 kmh 29.31 in992.6 mb 0.00 in0.0 mm 0.00 in0.0 mm 0.00 in0.0 mm
07:44 AM 66.7°F19.3°C 62.4°F16.9°C 86% 1.3 mph WSW2.1 kmh WSW 2.2 mph3.5 kmh 29.30 in992.2 mb 0.00 in0.0 mm 0.00 in0.0 mm 0.00 in0.0 mm
07:39 AM 66.6°F19.2°C 62.2°F16.8°C 86% Calm Calm -- 29.31 in992.6 mb 0.00 in0.0 mm 0.00 in0.0 mm 0.00 in0.0 mm
07:34 AM 66.4°F19.1°C 62.1°F16.7°C 86% 0.9 mph WSW1.4 kmh WSW 1.1 mph1.8 kmh 29.30 in992.2 mb 0.00 in0.0 mm 0.00 in0.0 mm 0.00 in0.0 mm
07:29 AM 66.4°F19.1°C 62.1°F16.7°C 86% 1.3 mph SSW2.1 kmh SSW 2.2 mph3.5 kmh 29.30 in992.2 mb 0.00 in0.0 mm 0.00 in0.0 mm 0.00 in0.0 mm
07:24 AM 66.4°F19.1°C 62.1°F16.7°C 86% 0.7 mph SW1.1 kmh SW 1.1 mph1.8 kmh 29.30 in992.2 mb 0.00 in0.0 mm 0.00 in0.0 mm 0.00 in0.0 mm
07:19 AM 66.2°F19.0°C 61.9°F16.6°C 86% 0.7 mph SW1.1 kmh SW 1.1 mph1.8 kmh 29.30 in992.2 mb 0.00 in0.0 mm 0.00 in0.0 mm 0.00 in0.0 mm
07:14 AM 66.2°F19.0°C 61.9°F16.6°C 86% Calm Calm -- 29.30 in992.2 mb 0.00 in0.0 mm 0.00 in0.0 mm 0.00 in0.0 mm
07:09 AM 66.0°F18.9°C 61.7°F16.5°C 86% 1.3 mph WSW2.1 kmh WSW 2.2 mph3.5 kmh 29.30 in992.2 mb 0.00 in0.0 mm 0.00 in0.0 mm 0.00 in0.0 mm
07:04 AM 66.0°F18.9°C 61.7°F16.5°C 86% 1.8 mph SW2.9 kmh SW 2.2 mph3.5 kmh 29.30 in992.2 mb 0.00 in0.0 mm 0.00 in0.0 mm 0.00 in0.0 mm
06:59 AM 66.0°F18.9°C 61.7°F16.5°C 86% 2.5 mph SW4.0 kmh SW 3.4 mph5.5 kmh 29.29 in991.9 mb 0.00 in0.0 mm 0.00 in0.0 mm 0.00 in0.0 mm
06:54 AM 66.0°F18.9°C 61.3°F16.3°C 85% 0.9 mph SW1.4 kmh SW 1.1 mph1.8 kmh 29.29 in991.9 mb 0.00 in0.0 mm 0.00 in0.0 mm 0.00 in0.0 mm
06:49 AM 66.0°F18.9°C 61.3°F16.3°C 85% Calm Calm -- 29.29 in991.9 mb 0.00 in0.0 mm 0.00 in0.0 mm 0.00 in0.0 mm
06:44 AM 66.0°F18.9°C 61.3°F16.3°C 85% 0.2 mph SW0.3 kmh SW 1.1 mph1.8 kmh 29.29 in991.9 mb 0.00 in0.0 mm 0.00 in0.0 mm 0.00 in0.0 mm
06:39 AM 66.0°F18.9°C 61.3°F16.3°C 85% 1.6 mph SW2.6 kmh SW 2.2 mph3.5 kmh 29.30 in992.2 mb 0.00 in0.0 mm 0.00 in0.0 mm 0.00 in0.0 mm
06:34 AM 66.0°F18.9°C 61.3°F16.3°C 85% 0.7 mph SW1.1 kmh SW 1.1 mph1.8 kmh 29.30 in992.2 mb 0.00 in0.0 mm 0.00 in0.0 mm 0.00 in0.0 mm
06:29 AM 66.0°F18.9°C 61.3°F16.3°C 85% 2.5 mph SW4.0 kmh SW 3.4 mph5.5 kmh 29.29 in991.9 mb 0.00 in0.0 mm 0.00 in0.0 mm 0.00 in0.0 mm
06:24 AM 66.0°F18.9°C 61.3°F16.3°C 85% 1.3 mph SW2.1 kmh SW 2.2 mph3.5 kmh 29.29 in991.9 mb 0.00 in0.0 mm 0.00 in0.0 mm 0.00 in0.0 mm
06:19 AM 66.0°F18.9°C 61.3°F16.3°C 85% 0.9 mph SW1.4 kmh SW 1.1 mph1.8 kmh 29.30 in992.2 mb 0.00 in0.0 mm 0.00 in0.0 mm 0.00 in0.0 mm
06:14 AM 66.0°F18.9°C 61.3°F16.3°C 85% 0.2 mph SW0.3 kmh SW 1.1 mph1.8 kmh 29.29 in991.9 mb 0.00 in0.0 mm 0.00 in0.0 mm 0.00 in0.0 mm
06:09 AM 66.0°F18.9°C 61.3°F16.3°C 85% 0.7 mph SW1.1 kmh SW 1.1 mph1.8 kmh 29.29 in991.9 mb 0.00 in0.0 mm 0.00 in0.0 mm 0.00 in0.0 mm
06:04 AM 66.0°F18.9°C 61.3°F16.3°C 85% 1.3 mph SW2.1 kmh SW 2.2 mph3.5 kmh 29.29 in991.9 mb 0.00 in0.0 mm 0.00 in0.0 mm 0.00 in0.0 mm
05:59 AM 65.8°F18.8°C 61.2°F16.2°C 85% 1.3 mph SW2.1 kmh SW 2.2 mph3.5 kmh 29.29 in991.9 mb 0.00 in0.0 mm 0.00 in0.0 mm 0.00 in0.0 mm
05:54 AM 66.0°F18.9°C 61.0°F16.1°C 84% 1.3 mph SW2.1 kmh SW 2.2 mph3.5 kmh 29.30 in992.2 mb 0.00 in0.0 mm 0.00 in0.0 mm 0.00 in0.0 mm
05:49 AM 66.0°F18.9°C 61.0°F16.1°C 84% 1.3 mph SW2.1 kmh SW 2.2 mph3.5 kmh 29.29 in991.9 mb 0.00 in0.0 mm 0.00 in0.0 mm 0.00 in0.0 mm
05:44 AM 66.0°F18.9°C 61.0°F16.1°C 84% 1.3 mph SW2.1 kmh SW 2.2 mph3.5 kmh 29.29 in991.9 mb 0.00 in0.0 mm 0.00 in0.0 mm 0.00 in0.0 mm
05:39 AM 66.0°F18.9°C 61.0°F16.1°C 84% 0.7 mph SW1.1 kmh SW 1.1 mph1.8 kmh 29.29 in991.9 mb 0.00 in0.0 mm 0.00 in0.0 mm 0.00 in0.0 mm
05:34 AM 66.2°F19.0°C 61.2°F16.2°C 84% 2.0 mph SW3.2 kmh SW 3.4 mph5.5 kmh 29.29 in991.9 mb 0.00 in0.0 mm 0.00 in0.0 mm 0.00 in0.0 mm
05:29 AM 66.2°F19.0°C 61.0°F16.1°C 83% 0.7 mph SW1.1 kmh SW 1.1 mph1.8 kmh 29.29 in991.9 mb 0.00 in0.0 mm 0.00 in0.0 mm 0.00 in0.0 mm
05:24 AM 66.2°F19.0°C 61.0°F16.1°C 83% 0.2 mph SW0.3 kmh SW 1.1 mph1.8 kmh 29.27 in991.2 mb 0.00 in0.0 mm 0.00 in0.0 mm 0.00 in0.0 mm
05:19 AM 66.2°F19.0°C 61.0°F16.1°C 83% 0.9 mph SW1.4 kmh SW 1.1 mph1.8 kmh 29.27 in991.2 mb 0.00 in0.0 mm 0.00 in0.0 mm 0.00 in0.0 mm
05:14 AM 66.4°F19.1°C 60.6°F15.9°C 82% 0.9 mph WSW1.4 kmh WSW 1.1 mph1.8 kmh 29.28 in991.5 mb 0.00 in0.0 mm 0.00 in0.0 mm 0.00 in0.0 mm
05:09 AM 66.2°F19.0°C 60.6°F15.9°C 82% 0.2 mph SE0.3 kmh SE 1.1 mph1.8 kmh 29.27 in991.2 mb 0.00 in0.0 mm 0.00 in0.0 mm 0.00 in0.0 mm
05:04 AM 66.2°F19.0°C 60.6°F15.9°C 82% Calm Calm -- 29.28 in991.5 mb 0.00 in0.0 mm 0.00 in0.0 mm 0.00 in0.0 mm
04:59 AM 66.4°F19.1°C 60.6°F15.9°C 82% 2.2 mph SW3.5 kmh SW 3.4 mph5.5 kmh 29.28 in991.5 mb 0.00 in0.0 mm 0.00 in0.0 mm 0.00 in0.0 mm
04:54 AM 66.6°F19.2°C 60.6°F15.9°C 81% 0.7 mph SSW1.1 kmh SSW 1.1 mph1.8 kmh 29.28 in991.5 mb 0.00 in0.0 mm 0.00 in0.0 mm 0.00 in0.0 mm
04:49 AM 66.6°F19.2°C 60.6°F15.9°C 81% 0.2 mph SSW0.3 kmh SSW 1.1 mph1.8 kmh 29.28 in991.5 mb 0.00 in0.0 mm 0.00 in0.0 mm 0.00 in0.0 mm
04:44 AM 66.6°F19.2°C 60.6°F15.9°C 81% 0.2 mph SW0.3 kmh SW 1.1 mph1.8 kmh 29.27 in991.2 mb 0.00 in0.0 mm 0.00 in0.0 mm 0.00 in0.0 mm
04:39 AM 66.7°F19.3°C 60.6°F15.9°C 81% 0.7 mph SW1.1 kmh SW 1.1 mph1.8 kmh 29.27 in991.2 mb 0.00 in0.0 mm 0.00 in0.0 mm 0.00 in0.0 mm
04:34 AM 66.7°F19.3°C 60.6°F15.9°C 81% 0.2 mph WSW0.3 kmh WSW 1.1 mph1.8 kmh 29.28 in991.5 mb 0.00 in0.0 mm 0.00 in0.0 mm 0.00 in0.0 mm
04:29 AM 66.7°F19.3°C 60.6°F15.9°C 81% 0.2 mph SW0.3 kmh SW 1.1 mph1.8 kmh 29.29 in991.9 mb 0.00 in0.0 mm 0.00 in0.0 mm 0.00 in0.0 mm
04:24 AM 66.7°F19.3°C 60.4°F15.8°C 80% 1.3 mph SW2.1 kmh SW 2.2 mph3.5 kmh 29.28 in991.5 mb 0.00 in0.0 mm 0.00 in0.0 mm 0.00 in0.0 mm
04:19 AM 66.9°F19.4°C 60.6°F15.9°C 80% 0.7 mph WSW1.1 kmh WSW 1.1 mph1.8 kmh 29.29 in991.9 mb 0.00 in0.0 mm 0.00 in0.0 mm 0.00 in0.0 mm
04:14 AM 66.9°F19.4°C 60.6°F15.9°C 80% 0.4 mph E0.6 kmh E 1.1 mph1.8 kmh 29.28 in991.5 mb 0.00 in0.0 mm 0.00 in0.0 mm 0.00 in0.0 mm
04:09 AM 66.9°F19.4°C 60.6°F15.9°C 80% 1.3 mph SW2.1 kmh SW 2.2 mph3.5 kmh 29.28 in991.5 mb 0.00 in0.0 mm 0.00 in0.0 mm 0.00 in0.0 mm
04:04 AM 66.9°F19.4°C 60.6°F15.9°C 80% 1.3 mph SW2.1 kmh SW 2.2 mph3.5 kmh 29.28 in991.5 mb 0.00 in0.0 mm 0.00 in0.0 mm 0.00 in0.0 mm
03:59 AM 66.9°F19.4°C 60.6°F15.9°C 80% 1.6 mph WSW2.6 kmh WSW 2.2 mph3.5 kmh 29.29 in991.9 mb 0.00 in0.0 mm 0.00 in0.0 mm 0.00 in0.0 mm
03:54 AM 67.1°F19.5°C 60.4°F15.8°C 79% 2.2 mph SW3.5 kmh SW 2.2 mph3.5 kmh 29.28 in991.5 mb 0.00 in0.0 mm 0.00 in0.0 mm 0.00 in0.0 mm
03:49 AM 67.3°F19.6°C 60.6°F15.9°C 79% 1.3 mph WSW2.1 kmh WSW 2.2 mph3.5 kmh 29.29 in991.9 mb 0.00 in0.0 mm 0.00 in0.0 mm 0.00 in0.0 mm
03:44 AM 67.3°F19.6°C 60.6°F15.9°C 79% 1.1 mph WSW1.8 kmh WSW 1.1 mph1.8 kmh 29.29 in991.9 mb 0.00 in0.0 mm 0.00 in0.0 mm 0.00 in0.0 mm
03:39 AM 67.3°F19.6°C 60.3°F15.7°C 78% 1.6 mph SW2.6 kmh SW 2.2 mph3.5 kmh 29.29 in991.9 mb 0.00 in0.0 mm 0.00 in0.0 mm 0.00 in0.0 mm
03:34 AM 67.5°F19.7°C 60.8°F16.0°C 79% 1.8 mph SW2.9 kmh SW 2.2 mph3.5 kmh 29.28 in991.5 mb 0.00 in0.0 mm 0.00 in0.0 mm 0.00 in0.0 mm
03:29 AM 67.6°F19.8°C 60.6°F15.9°C 78% 1.1 mph SSE1.8 kmh SSE 2.2 mph3.5 kmh 29.28 in991.5 mb 0.00 in0.0 mm 0.00 in0.0 mm 0.00 in0.0 mm
03:24 AM 67.6°F19.8°C 60.6°F15.9°C 78% 0.7 mph SW1.1 kmh SW 1.1 mph1.8 kmh 29.29 in991.9 mb 0.00 in0.0 mm 0.00 in0.0 mm 0.00 in0.0 mm
03:19 AM 67.8°F19.9°C 60.8°F16.0°C 78% 0.9 mph W1.4 kmh W 1.1 mph1.8 kmh 29.29 in991.9 mb 0.00 in0.0 mm 0.00 in0.0 mm 0.00 in0.0 mm
03:14 AM 67.8°F19.9°C 60.3°F15.7°C 77% 0.4 mph SSE0.6 kmh SSE 1.1 mph1.8 kmh 29.29 in991.9 mb 0.00 in0.0 mm 0.00 in0.0 mm 0.00 in0.0 mm
03:09 AM 67.8°F19.9°C 60.3°F15.7°C 77% 1.3 mph SW2.1 kmh SW 2.2 mph3.5 kmh 29.29 in991.9 mb 0.00 in0.0 mm 0.00 in0.0 mm 0.00 in0.0 mm
03:04 AM 68.2°F20.1°C 60.6°F15.9°C 77% 0.2 mph SW0.3 kmh SW 1.1 mph1.8 kmh 29.29 in991.9 mb 0.00 in0.0 mm 0.00 in0.0 mm 0.00 in0.0 mm
02:59 AM 68.0°F20.0°C 60.4°F15.8°C 77% 1.6 mph SW2.6 kmh SW 2.2 mph3.5 kmh 29.29 in991.9 mb 0.00 in0.0 mm 0.00 in0.0 mm 0.00 in0.0 mm
02:54 AM 68.2°F20.1°C 60.6°F15.9°C 77% Calm Calm -- 29.29 in991.9 mb 0.00 in0.0 mm 0.00 in0.0 mm 0.00 in0.0 mm
02:49 AM 68.4°F20.2°C 60.8°F16.0°C 77% 0.7 mph SW1.1 kmh SW 1.1 mph1.8 kmh 29.30 in992.2 mb 0.00 in0.0 mm 0.00 in0.0 mm 0.00 in0.0 mm
02:44 AM 68.4°F20.2°C 60.4°F15.8°C 76% 1.8 mph SW2.9 kmh SW 2.2 mph3.5 kmh 29.31 in992.6 mb 0.00 in0.0 mm 0.00 in0.0 mm 0.00 in0.0 mm
02:39 AM 68.7°F20.4°C 60.8°F16.0°C 76% 1.6 mph WSW2.6 kmh WSW 3.4 mph5.5 kmh 29.29 in991.9 mb 0.00 in0.0 mm 0.00 in0.0 mm 0.00 in0.0 mm
02:34 AM 68.5°F20.3°C 60.6°F15.9°C 76% 0.2 mph WSW0.3 kmh WSW 1.1 mph1.8 kmh 29.29 in991.9 mb 0.00 in0.0 mm 0.00 in0.0 mm 0.00 in0.0 mm
02:29 AM 68.7°F20.4°C 60.8°F16.0°C 76% 1.8 mph SW2.9 kmh SW 3.4 mph5.5 kmh 29.30 in992.2 mb 0.00 in0.0 mm 0.00 in0.0 mm 0.00 in0.0 mm
02:24 AM 68.9°F20.5°C 60.6°F15.9°C 75% 0.7 mph WSW1.1 kmh WSW 1.1 mph1.8 kmh 29.29 in991.9 mb 0.00 in0.0 mm 0.00 in0.0 mm 0.00 in0.0 mm
02:19 AM 68.9°F20.5°C 60.6°F15.9°C 75% 2.9 mph SW4.7 kmh SW 3.4 mph5.5 kmh 29.30 in992.2 mb 0.00 in0.0 mm 0.00 in0.0 mm 0.00 in0.0 mm
02:14 AM 69.1°F20.6°C 60.4°F15.8°C 74% 1.3 mph SW2.1 kmh SW 2.2 mph3.5 kmh 29.29 in991.9 mb 0.00 in0.0 mm 0.00 in0.0 mm 0.00 in0.0 mm
02:09 AM 69.3°F20.7°C 60.6°F15.9°C 74% 0.2 mph S0.3 kmh S 1.1 mph1.8 kmh 29.29 in991.9 mb 0.00 in0.0 mm 0.00 in0.0 mm 0.00 in0.0 mm
02:04 AM 69.3°F20.7°C 60.6°F15.9°C 74% 1.8 mph SW2.9 kmh SW 2.2 mph3.5 kmh 29.29 in991.9 mb 0.00 in0.0 mm 0.00 in0.0 mm 0.00 in0.0 mm
01:59 AM 69.3°F20.7°C 60.6°F15.9°C 74% Calm Calm -- 29.29 in991.9 mb 0.00 in0.0 mm 0.00 in0.0 mm 0.00 in0.0 mm
01:54 AM 69.4°F20.8°C 60.8°F16.0°C 74% 0.7 mph SW1.1 kmh SW 1.1 mph1.8 kmh 29.29 in991.9 mb 0.00 in0.0 mm 0.00 in0.0 mm 0.00 in0.0 mm
01:49 AM 69.4°F20.8°C 60.8°F16.0°C 74% 1.6 mph SW2.6 kmh SW 2.2 mph3.5 kmh 29.29 in991.9 mb 0.00 in0.0 mm 0.00 in0.0 mm 0.00 in0.0 mm
01:44 AM 69.6°F20.9°C 60.6°F15.9°C 73% 3.8 mph SW6.1 kmh SW 5.8 mph9.3 kmh 29.29 in991.9 mb 0.00 in0.0 mm 0.00 in0.0 mm 0.00 in0.0 mm
01:39 AM 69.6°F20.9°C 60.6°F15.9°C 73% 0.9 mph WSW1.4 kmh WSW 1.1 mph1.8 kmh 29.30 in992.2 mb 0.00 in0.0 mm 0.00 in0.0 mm 0.00 in0.0 mm
01:34 AM 69.8°F21.0°C 60.8°F16.0°C 73% 2.5 mph SW4.0 kmh SW 4.5 mph7.2 kmh 29.29 in991.9 mb 0.00 in0.0 mm 0.00 in0.0 mm 0.00 in0.0 mm
01:29 AM 70.0°F21.1°C 61.0°F16.1°C 73% 0.7 mph SW1.1 kmh SW 1.1 mph1.8 kmh 29.30 in992.2 mb 0.00 in0.0 mm 0.00 in0.0 mm 0.00 in0.0 mm
01:24 AM 70.0°F21.1°C 61.0°F16.1°C 73% 2.2 mph S3.5 kmh S 3.4 mph5.5 kmh 29.29 in991.9 mb 0.00 in0.0 mm 0.00 in0.0 mm 0.00 in0.0 mm
01:19 AM 70.2°F21.2°C 61.2°F16.2°C 73% 0.7 mph SSW1.1 kmh SSW 1.1 mph1.8 kmh 29.30 in992.2 mb 0.00 in0.0 mm 0.00 in0.0 mm 0.00 in0.0 mm
01:14 AM 70.3°F21.3°C 60.8°F16.0°C 72% 2.0 mph SSW3.2 kmh SSW 2.2 mph3.5 kmh 29.31 in992.6 mb 0.00 in0.0 mm 0.00 in0.0 mm 0.00 in0.0 mm
01:09 AM 70.3°F21.3°C 60.8°F16.0°C 72% 1.8 mph WSW2.9 kmh WSW 2.2 mph3.5 kmh 29.30 in992.2 mb 0.00 in0.0 mm 0.00 in0.0 mm 0.00 in0.0 mm
01:04 AM 70.5°F21.4°C 61.5°F16.4°C 73% 1.3 mph WSW2.1 kmh WSW 2.2 mph3.5 kmh 29.30 in992.2 mb 0.00 in0.0 mm 0.00 in0.0 mm 0.00 in0.0 mm
12:59 AM 70.7°F21.5°C 61.2°F16.2°C 72% 1.1 mph SW1.8 kmh SW 2.2 mph3.5 kmh 29.30 in992.2 mb 0.00 in0.0 mm 0.00 in0.0 mm 0.00 in0.0 mm
12:54 AM 70.7°F21.5°C 61.2°F16.2°C 72% 1.1 mph WSW1.8 kmh WSW 1.1 mph1.8 kmh 29.30 in992.2 mb 0.00 in0.0 mm 0.00 in0.0 mm 0.00 in0.0 mm
12:49 AM 70.5°F21.4°C 61.0°F16.1°C 72% 0.7 mph SW1.1 kmh SW 1.1 mph1.8 kmh 29.30 in992.2 mb 0.00 in0.0 mm 0.00 in0.0 mm 0.00 in0.0 mm
12:44 AM 70.5°F21.4°C 61.5°F16.4°C 73% 0.7 mph SW1.1 kmh SW 2.2 mph3.5 kmh 29.30 in992.2 mb 0.00 in0.0 mm 0.00 in0.0 mm 0.00 in0.0 mm
12:39 AM 70.7°F21.5°C 61.2°F16.2°C 72% Calm Calm -- 29.30 in992.2 mb 0.00 in0.0 mm 0.00 in0.0 mm 0.00 in0.0 mm
12:34 AM 70.9°F21.6°C 61.9°F16.6°C 73% Calm Calm -- 29.30 in992.2 mb 0.00 in0.0 mm 0.00 in0.0 mm 0.00 in0.0 mm
12:29 AM 71.2°F21.8°C 61.7°F16.5°C 72% 1.3 mph SSW2.1 kmh SSW 2.2 mph3.5 kmh 29.30 in992.2 mb 0.00 in0.0 mm 0.00 in0.0 mm 0.00 in0.0 mm
12:24 AM 71.2°F21.8°C 61.7°F16.5°C 72% 0.9 mph SSW1.4 kmh SSW 1.1 mph1.8 kmh 29.31 in992.6 mb 0.00 in0.0 mm 0.00 in0.0 mm 0.00 in0.0 mm
12:19 AM 71.2°F21.8°C 61.7°F16.5°C 72% 0.9 mph SW1.4 kmh SW 1.1 mph1.8 kmh 29.31 in992.6 mb 0.00 in0.0 mm 0.00 in0.0 mm 0.00 in0.0 mm
12:14 AM 71.2°F21.8°C 61.7°F16.5°C 72% 1.8 mph SW2.9 kmh SW 2.2 mph3.5 kmh 29.30 in992.2 mb 0.00 in0.0 mm 0.00 in0.0 mm 0.00 in0.0 mm
12:09 AM 71.2°F21.8°C 61.7°F16.5°C 72% 2.5 mph SW4.0 kmh SW 3.4 mph5.5 kmh 29.30 in992.2 mb 0.00 in0.0 mm 0.00 in0.0 mm 0.00 in0.0 mm
12:04 AM 71.6°F22.0°C 62.1°F16.7°C 72% 0.2 mph SW0.3 kmh SW 1.1 mph1.8 kmh 29.31 in992.6 mb 0.00 in0.0 mm 0.00 in0.0 mm 0.00 in0.0 mm